Time;durP1;ratioP1;P1;durP2;ratioP2;P2;SDS_P1;SDS_P2;PMS_P1;PMS_P2;Temp;Humidity;BMP_temperature;BMP_pressure;BME280_temperature;BME280_humidity;BME280_pressure;Samples;Min_cycle;Max_cycle;Signal;HPM_P1;HPM_P2
2022/11/24 00:01:23;;;;;;;13.63;4.30;;;7.80;89.00;;;;;;4947398;29;20451;-75
2022/11/24 00:04:01;;;;;;;11.07;3.30;;;7.80;89.00;;;;;;4947194;28;20436;-74
2022/11/24 00:06:27;;;;;;;9.10;2.27;;;7.90;88.90;;;;;;4940492;29;20440;-74
2022/11/24 00:08:54;;;;;;;7.40;2.73;;;8.00;88.70;;;;;;4945347;29;20596;-74
2022/11/24 00:11:28;;;;;;;10.20;2.63;;;8.00;88.40;;;;;;4936770;28;20503;-73
2022/11/24 00:13:54;;;;;;;17.00;3.00;;;8.10;88.30;;;;;;4935744;29;21134;-75
2022/11/24 00:16:26;;;;;;;7.90;3.13;;;8.20;87.80;;;;;;4939577;29;21045;-72
2022/11/24 00:18:53;;;;;;;6.47;3.03;;;8.20;87.70;;;;;;4944467;28;20469;-72
2022/11/24 00:21:20;;;;;;;6.20;2.80;;;8.30;87.30;;;;;;4938448;29;20423;-72
2022/11/24 00:23:46;;;;;;;3.83;2.10;;;8.30;87.10;;;;;;4939301;29;21007;-73
2022/11/24 00:26:14;;;;;;;6.83;2.30;;;8.30;87.30;;;;;;4944104;29;20922;-74
2022/11/24 00:28:41;;;;;;;10.80;3.00;;;8.30;87.30;;;;;;4940927;28;20425;-72
2022/11/24 00:31:22;;;;;;;11.10;2.70;;;8.20;87.10;;;;;;4940265;29;20985;-72
2022/11/24 00:33:50;;;;;;;11.33;2.80;;;8.20;87.60;;;;;;4944266;29;20430;-74
2022/11/24 00:36:17;;;;;;;13.57;4.40;;;8.20;87.60;;;;;;4939836;29;20487;-73
2022/11/24 00:38:44;;;;;;;12.43;3.13;;;8.10;87.70;;;;;;4945593;29;20484;-72
2022/11/24 00:41:10;;;;;;;5.57;2.80;;;8.10;88.00;;;;;;4943044;29;20428;-73
2022/11/24 00:43:36;;;;;;;6.83;3.00;;;8.10;88.00;;;;;;4947557;29;20571;-71
2022/11/24 00:46:01;;;;;;;7.83;3.27;;;8.10;88.00;;;;;;4946830;29;20507;-73
2022/11/24 00:48:27;;;;;;;11.50;2.60;;;8.10;88.10;;;;;;4948853;29;20184;-72
2022/11/24 00:51:02;;;;;;;8.57;2.73;;;8.20;87.70;;;;;;4938244;28;20185;-71
2022/11/24 00:53:28;;;;;;;7.97;2.80;;;8.30;87.30;;;;;;4938127;29;20552;-70
2022/11/24 00:55:54;;;;;;;13.03;2.87;;;8.30;86.90;;;;;;4937677;29;20442;-73
2022/11/24 00:58:21;;;;;;;8.67;3.00;;;8.30;86.80;;;;;;4938907;28;20476;-73
2022/11/24 01:00:47;;;;;;;6.67;3.07;;;8.30;86.80;;;;;;4940448;29;20991;-72
2022/11/24 01:03:14;;;;;;;6.90;2.53;;;8.20;86.90;;;;;;4941020;28;20785;-74
2022/11/24 01:05:41;;;;;;;8.90;3.00;;;8.10;87.10;;;;;;4937274;29;20848;-73
2022/11/24 01:08:07;;;;;;;12.73;3.20;;;7.90;87.70;;;;;;4940875;28;20773;-73
2022/11/24 01:10:33;;;;;;;11.43;3.60;;;7.80;88.00;;;;;;4942739;29;20526;-74
2022/11/24 01:12:59;;;;;;;5.80;3.00;;;7.60;88.30;;;;;;4944210;28;20440;-71
2022/11/24 01:15:25;;;;;;;6.10;3.00;;;7.50;89.00;;;;;;4943430;29;20926;-72
2022/11/24 01:17:50;;;;;;;10.30;3.30;;;7.40;89.50;;;;;;4941746;28;20494;-74
2022/11/24 01:20:16;;;;;;;10.23;2.80;;;7.30;89.70;;;;;;4936712;29;20484;-73
2022/11/24 01:22:42;;;;;;;10.10;2.67;;;7.30;89.90;;;;;;4943054;28;20191;-73
2022/11/24 01:25:09;;;;;;;5.77;2.83;;;7.30;90.10;;;;;;4936215;29;20188;-71
2022/11/24 01:27:35;;;;;;;11.23;3.00;;;7.40;90.30;;;;;;4944931;28;20246;-73
2022/11/24 01:30:02;;;;;;;10.60;5.27;;;7.40;90.30;;;;;;4940128;29;20472;-72
2022/11/24 01:32:27;;;;;;;8.90;2.83;;;7.50;90.20;;;;;;4947043;28;20281;-73
2022/11/24 01:34:53;;;;;;;9.50;3.63;;;7.40;90.00;;;;;;4942459;29;20441;-73
2022/11/24 01:37:19;;;;;;;7.37;2.97;;;7.30;89.70;;;;;;4946820;28;20214;-74
2022/11/24 01:39:44;;;;;;;5.27;2.40;;;7.20;89.90;;;;;;4940633;29;20218;-71
2022/11/24 01:42:10;;;;;;;7.00;2.80;;;7.20;90.10;;;;;;4956387;28;20187;-72
2022/11/24 01:44:35;;;;;;;8.97;3.80;;;7.10;90.20;;;;;;4947032;29;20180;-72
2022/11/24 01:47:22;;;;;;;7.77;2.87;;;7.20;90.70;;;;;;4936616;29;20193;-70
2022/11/24 01:49:52;;;;;;;7.37;2.70;;;7.00;90.70;;;;;;4943604;29;20255;-72
2022/11/24 01:52:17;;;;;;;11.43;2.90;;;7.30;91.10;;;;;;4940023;28;20487;-70
2022/11/24 01:54:55;;;;;;;5.40;2.30;;;7.50;90.80;;;;;;4937944;29;20450;-73
2022/11/24 01:57:33;;;;;;;5.30;2.03;;;7.70;90.40;;;;;;4940400;29;20564;-73
2022/11/24 02:00:04;;;;;;;9.13;2.87;;;7.90;89.70;;;;;;4939923;29;21266;-74
2022/11/24 02:02:29;;;;;;;9.10;2.23;;;8.00;89.20;;;;;;4946232;28;20435;-73
2022/11/24 02:05:06;;;;;;;12.07;3.33;;;8.10;88.60;;;;;;4948012;28;20770;-73
2022/11/24 02:07:32;;;;;;;10.23;2.50;;;8.20;88.00;;;;;;4947503;28;20506;-73
2022/11/24 02:10:02;;;;;;;6.90;2.03;;;8.30;87.70;;;;;;4941135;29;21379;-71
2022/11/24 02:12:28;;;;;;;7.27;2.40;;;8.30;87.40;;;;;;4937138;28;20514;-72
2022/11/24 02:14:55;;;;;;;4.63;2.03;;;8.40;87.30;;;;;;4941483;28;20508;-73
2022/11/24 02:17:21;;;;;;;5.50;1.90;;;8.40;87.30;;;;;;4941226;29;20286;-72
2022/11/24 02:19:58;;;;;;;4.00;2.20;;;8.40;87.10;;;;;;4943417;28;21163;-72
2022/11/24 02:22:42;;;;;;;7.20;1.97;;;8.40;87.00;;;;;;4945525;28;20438;-73
2022/11/24 02:25:17;;;;;;;5.77;2.20;;;8.30;87.00;;;;;;4950091;29;20411;-72
2022/11/24 02:27:44;;;;;;;9.50;2.50;;;8.20;87.10;;;;;;4966408;28;20427;-74
2022/11/24 02:30:10;;;;;;;9.20;2.57;;;8.10;87.70;;;;;;4959591;28;20459;-73
2022/11/24 02:32:40;;;;;;;8.23;3.07;;;8.00;88.00;;;;;;4959444;29;20428;-72
2022/11/24 02:35:07;;;;;;;8.50;2.33;;;8.00;88.10;;;;;;4952367;29;20432;-72
2022/11/24 02:37:33;;;;;;;7.13;2.57;;;8.00;88.30;;;;;;4948021;28;20476;-73
2022/11/24 02:39:58;;;;;;;7.43;2.10;;;8.10;88.00;;;;;;4943348;29;20583;-72
2022/11/24 02:42:26;;;;;;;4.67;1.90;;;8.10;87.70;;;;;;4942061;29;20191;-72
2022/11/24 02:44:55;;;;;;;4.47;1.87;;;8.10;87.70;;;;;;4936575;28;20172;-73
2022/11/24 02:47:21;;;;;;;7.93;2.50;;;8.10;87.30;;;;;;4935177;29;20420;-73
2022/11/24 02:49:47;;;;;;;5.20;2.13;;;8.00;87.60;;;;;;4935614;29;21106;-72
2022/11/24 02:52:13;;;;;;;4.47;2.13;;;7.90;87.80;;;;;;4936259;29;20559;-72
2022/11/24 02:54:38;;;;;;;6.20;2.30;;;7.80;88.00;;;;;;4937748;29;20362;-72
2022/11/24 02:57:04;;;;;;;7.13;2.30;;;7.70;88.30;;;;;;4936654;28;20472;-72
2022/11/24 02:59:30;;;;;;;6.13;2.33;;;7.70;88.90;;;;;;4938014;29;20253;-72
2022/11/24 03:01:56;;;;;;;5.63;2.07;;;7.70;89.20;;;;;;4937527;29;20197;-72
2022/11/24 03:04:22;;;;;;;6.27;2.83;;;7.60;89.30;;;;;;4942213;29;20184;-72
2022/11/24 03:06:47;;;;;;;5.90;2.10;;;7.60;89.60;;;;;;4938812;28;20519;-72
2022/11/24 03:09:13;;;;;;;7.37;2.83;;;7.50;89.70;;;;;;4938308;29;20212;-73
2022/11/24 03:11:39;;;;;;;8.83;2.83;;;7.50;89.90;;;;;;4935371;28;20184;-72
2022/11/24 03:14:05;;;;;;;7.13;2.57;;;7.40;90.10;;;;;;4939723;29;20188;-72
2022/11/24 03:16:32;;;;;;;3.87;1.80;;;7.30;90.20;;;;;;4938561;28;20844;-72
2022/11/24 03:18:58;;;;;;;9.47;3.33;;;7.30;90.70;;;;;;4932601;29;20468;-72
2022/11/24 03:21:23;;;;;;;5.90;1.87;;;7.30;90.70;;;;;;4933707;29;20484;-73
2022/11/24 03:23:49;;;;;;;5.23;1.90;;;7.40;90.80;;;;;;4934867;29;21053;-71
2022/11/24 03:26:17;;;;;;;4.20;1.90;;;7.60;90.50;;;;;;4934184;29;20192;-72
2022/11/24 03:28:42;;;;;;;7.03;2.20;;;7.70;90.30;;;;;;4935727;29;20180;-74
2022/11/24 03:31:10;;;;;;;8.00;2.00;;;7.80;89.70;;;;;;4937787;29;20416;-74
2022/11/24 03:33:36;;;;;;;6.43;2.10;;;7.90;89.50;;;;;;4935906;29;20200;-71
2022/11/24 03:36:03;;;;;;;5.37;2.20;;;7.90;89.00;;;;;;4936866;29;20416;-71
2022/11/24 03:38:29;;;;;;;5.30;2.10;;;7.90;88.90;;;;;;4936714;29;20446;-72
2022/11/24 03:40:55;;;;;;;5.93;2.80;;;8.00;88.70;;;;;;4935660;29;20861;-73
2022/11/24 03:43:20;;;;;;;10.43;2.13;;;8.00;88.40;;;;;;4943603;29;20204;-72
2022/11/24 03:45:47;;;;;;;6.20;2.00;;;8.00;88.30;;;;;;4944525;29;20192;-72
2022/11/24 03:48:15;;;;;;;7.93;2.13;;;8.00;88.30;;;;;;4947341;29;20188;-73
2022/11/24 03:50:40;;;;;;;11.70;2.40;;;7.90;88.40;;;;;;4950210;29;20462;-73
2022/11/24 03:53:06;;;;;;;12.30;2.00;;;8.00;88.10;;;;;;4954568;29;20499;-73
2022/11/24 03:55:32;;;;;;;7.20;2.90;;;7.90;88.10;;;;;;4944846;28;20192;-73
2022/11/24 03:57:57;;;;;;;9.47;2.70;;;7.80;88.30;;;;;;4952357;29;20208;-73
2022/11/24 04:00:23;;;;;;;5.17;1.93;;;7.70;88.70;;;;;;4940168;28;20214;-71
2022/11/24 04:02:49;;;;;;;9.03;2.13;;;7.70;89.20;;;;;;4943232;29;20287;-72
2022/11/24 04:05:14;;;;;;;4.70;2.20;;;7.70;89.30;;;;;;4940721;29;20180;-71
2022/11/24 04:07:40;;;;;;;5.53;1.90;;;7.70;89.20;;;;;;4948782;29;20611;-71
2022/11/24 04:10:06;;;;;;;6.77;1.80;;;7.70;89.20;;;;;;4948843;29;20219;-72
2022/11/24 04:12:44;;;;;;;6.07;1.90;;;7.70;89.20;;;;;;4950235;29;20663;-72
2022/11/24 04:15:15;;;;;;;6.63;2.00;;;7.70;89.20;;;;;;4948402;29;20526;-71
2022/11/24 04:17:41;;;;;;;7.03;2.10;;;7.60;89.20;;;;;;4949631;29;20475;-72
2022/11/24 04:20:08;;;;;;;6.23;2.20;;;7.60;89.20;;;;;;4952106;29;20463;-72
2022/11/24 04:22:34;;;;;;;10.43;2.80;;;7.50;89.20;;;;;;4941699;28;20424;-73
2022/11/24 04:25:00;;;;;;;5.23;2.30;;;7.50;89.20;;;;;;4940683;29;20432;-71
2022/11/24 04:27:26;;;;;;;6.20;2.57;;;7.50;89.50;;;;;;4941801;28;20427;-71
2022/11/24 04:29:51;;;;;;;7.60;2.77;;;7.50;89.50;;;;;;4938711;29;21190;-72
2022/11/24 04:32:17;;;;;;;10.23;2.97;;;7.40;89.50;;;;;;4946782;28;20287;-72
2022/11/24 04:34:43;;;;;;;10.67;2.50;;;7.50;89.50;;;;;;4948030;29;20187;-73
2022/11/24 04:37:09;;;;;;;6.10;2.87;;;7.40;89.60;;;;;;4945134;29;20231;-72
2022/11/24 04:39:35;;;;;;;6.80;2.60;;;7.60;89.50;;;;;;4942009;29;20236;-73
2022/11/24 04:42:00;;;;;;;3.77;2.37;;;7.70;88.90;;;;;;4947961;28;20462;-73
2022/11/24 04:44:26;;;;;;;7.93;2.70;;;7.70;88.70;;;;;;4946575;29;20675;-71
2022/11/24 04:46:51;;;;;;;6.23;2.73;;;7.70;88.40;;;;;;4947426;29;20184;-72
2022/11/24 04:49:17;;;;;;;7.03;2.13;;;7.80;88.30;;;;;;4954351;28;20207;-73
2022/11/24 04:51:43;;;;;;;6.80;2.20;;;7.80;88.00;;;;;;4951110;29;20605;-72
2022/11/24 04:54:13;;;;;;;7.90;2.70;;;7.80;87.80;;;;;;4948726;28;20193;-72
2022/11/24 04:56:40;;;;;;;4.83;2.50;;;7.70;87.70;;;;;;4946235;29;20239;-73
2022/11/24 04:59:06;;;;;;;11.00;2.77;;;7.60;88.10;;;;;;4955075;29;20534;-75
2022/11/24 05:01:32;;;;;;;6.97;2.20;;;7.70;88.70;;;;;;4949426;28;20793;-73
2022/11/24 05:03:58;;;;;;;16.67;3.00;;;7.80;88.30;;;;;;4950218;29;20188;-72
2022/11/24 05:06:24;;;;;;;6.60;2.23;;;7.90;87.70;;;;;;4957721;28;20194;-73
2022/11/24 05:08:50;;;;;;;8.30;2.63;;;8.00;87.10;;;;;;4956341;28;20507;-74
2022/11/24 05:11:16;;;;;;;7.33;2.07;;;8.10;86.90;;;;;;4955175;28;20195;-75
2022/11/24 05:13:42;;;;;;;10.73;2.50;;;8.10;86.50;;;;;;4961014;28;20420;-74
2022/11/24 05:16:08;;;;;;;4.70;1.67;;;8.10;86.50;;;;;;4968979;28;20211;-72
2022/11/24 05:18:33;;;;;;;6.20;2.30;;;8.00;86.50;;;;;;4962803;28;20200;-73
2022/11/24 05:20:59;;;;;;;7.70;2.43;;;8.00;86.30;;;;;;4953619;29;20981;-74
2022/11/24 05:23:26;;;;;;;6.17;1.90;;;8.00;86.30;;;;;;4951237;29;20184;-73
2022/11/24 05:25:52;;;;;;;8.03;2.67;;;8.00;86.30;;;;;;4957907;28;20419;-73
2022/11/24 05:28:17;;;;;;;10.27;2.80;;;8.00;86.30;;;;;;4947869;29;20511;-74
2022/11/24 05:30:44;;;;;;;8.03;2.40;;;8.00;86.30;;;;;;4945823;28;20475;-71
2022/11/24 05:33:17;;;;;;;8.07;2.47;;;8.00;86.00;;;;;;4951442;28;20480;-72
2022/11/24 05:35:44;;;;;;;10.23;2.43;;;8.00;86.00;;;;;;4955825;29;20426;-73
2022/11/24 05:38:10;;;;;;;9.00;2.23;;;8.00;86.20;;;;;;4955384;28;20470;-72
2022/11/24 05:40:36;;;;;;;8.60;2.37;;;8.00;86.00;;;;;;4952015;28;20459;-73
2022/11/24 05:43:02;;;;;;;8.90;3.30;;;8.00;86.00;;;;;;4942065;29;20425;-73
2022/11/24 05:45:28;;;;;;;7.70;2.43;;;8.00;85.90;;;;;;4957512;29;20451;-73
2022/11/24 05:47:53;;;;;;;9.50;2.80;;;8.00;86.00;;;;;;4948832;28;20184;-73
2022/11/24 05:50:21;;;;;;;5.60;2.43;;;7.90;86.30;;;;;;4948676;29;20200;-74
2022/11/24 05:52:47;;;;;;;4.50;2.10;;;7.90;86.50;;;;;;4943671;29;20192;-72
2022/11/24 05:55:14;;;;;;;18.27;2.70;;;7.90;86.60;;;;;;4935795;29;20424;-74
2022/11/24 05:57:40;;;;;;;6.77;2.47;;;8.00;86.30;;;;;;4937484;29;20520;-73
2022/11/24 06:00:07;;;;;;;10.70;2.53;;;8.00;86.30;;;;;;4936484;29;20491;-72
2022/11/24 06:02:33;;;;;;;11.43;2.70;;;8.10;85.90;;;;;;4941337;29;20433;-74
2022/11/24 06:04:58;;;;;;;10.63;2.90;;;8.20;85.60;;;;;;4943406;29;20838;-73
2022/11/24 06:07:24;;;;;;;9.83;2.87;;;8.20;85.30;;;;;;4948171;29;20929;-73
2022/11/24 06:09:49;;;;;;;4.63;1.90;;;8.20;85.30;;;;;;4939678;28;20255;-71
2022/11/24 06:12:15;;;;;;;9.17;2.80;;;8.30;85.30;;;;;;4962423;28;20547;-73
2022/11/24 06:14:41;;;;;;;9.67;2.90;;;8.20;85.30;;;;;;4958977;28;20266;-73
2022/11/24 06:17:08;;;;;;;6.17;2.40;;;8.30;85.50;;;;;;4959562;29;20212;-71
2022/11/24 06:19:34;;;;;;;8.07;4.00;;;8.40;85.30;;;;;;4966267;28;20218;-72
2022/11/24 06:21:59;;;;;;;10.17;3.00;;;8.40;84.70;;;;;;4950857;29;20526;-73
2022/11/24 06:24:25;;;;;;;11.00;2.97;;;8.50;84.40;;;;;;4939180;29;20180;-73
2022/11/24 06:26:50;;;;;;;9.90;3.10;;;8.50;84.10;;;;;;4948171;29;20275;-73
2022/11/24 06:29:16;;;;;;;7.77;2.57;;;8.50;84.10;;;;;;4939317;28;20224;-75
2022/11/24 06:31:42;;;;;;;12.00;2.83;;;8.50;84.30;;;;;;4937674;29;20192;-73
2022/11/24 06:34:10;;;;;;;7.80;3.40;;;8.40;84.40;;;;;;4945951;28;20180;-73
2022/11/24 06:36:36;;;;;;;9.53;2.10;;;8.50;84.40;;;;;;4940568;29;20545;-73
2022/11/24 06:39:03;;;;;;;11.20;3.80;;;8.40;84.40;;;;;;4944550;28;20471;-72
2022/11/24 06:41:29;;;;;;;6.13;2.93;;;8.50;84.30;;;;;;4938529;29;20428;-75
2022/11/24 06:43:54;;;;;;;8.53;2.40;;;8.50;84.00;;;;;;4935122;29;20435;-72
2022/11/24 06:46:21;;;;;;;13.53;3.50;;;8.50;84.10;;;;;;4936402;29;20248;-73
2022/11/24 06:48:46;;;;;;;11.37;3.00;;;8.50;83.80;;;;;;4935069;29;20188;-73
2022/11/24 06:51:13;;;;;;;10.33;2.77;;;8.60;83.70;;;;;;4940719;29;20950;-73
2022/11/24 06:53:39;;;;;;;12.10;2.80;;;8.60;83.60;;;;;;4941027;28;20277;-73
2022/11/24 06:56:07;;;;;;;8.07;2.60;;;8.60;83.40;;;;;;4941465;29;20927;-73
2022/11/24 06:58:33;;;;;;;13.23;2.80;;;8.60;83.40;;;;;;4943861;28;20500;-72
2022/11/24 07:00:59;;;;;;;10.03;2.50;;;8.60;83.60;;;;;;4940397;28;20452;-73
2022/11/24 07:03:25;;;;;;;7.37;3.17;;;8.60;83.80;;;;;;4937654;28;20428;-73
2022/11/24 07:05:57;;;;;;;12.43;2.73;;;8.60;83.80;;;;;;4937209;29;20733;-75
2022/11/24 07:08:24;;;;;;;15.57;2.87;;;8.60;83.80;;;;;;4937765;28;20188;-74
2022/11/24 07:10:51;;;;;;;21.70;2.70;;;8.70;84.30;;;;;;4935441;29;20502;-76
2022/11/24 07:13:17;;;;;;;11.00;2.53;;;8.60;84.70;;;;;;4938066;28;20866;-73
2022/11/24 07:15:43;;;;;;;7.43;2.53;;;8.50;85.20;;;;;;4940057;29;20507;-75
2022/11/24 07:18:09;;;;;;;8.83;2.50;;;8.40;85.60;;;;;;4937947;29;20583;-75
2022/11/24 07:20:34;;;;;;;13.33;2.97;;;8.40;86.00;;;;;;4935582;29;20586;-75
2022/11/24 07:23:00;;;;;;;16.37;2.90;;;8.40;86.60;;;;;;4943174;28;20236;-74
2022/11/24 07:25:25;;;;;;;8.47;2.60;;;8.30;87.10;;;;;;4948498;28;20180;-74
2022/11/24 07:28:00;;;;;;;10.63;3.77;;;8.30;87.60;;;;;;4943119;28;20227;-73
2022/11/24 07:30:27;;;;;;;14.27;2.77;;;8.30;87.60;;;;;;4944947;28;20220;-75
2022/11/24 07:33:01;;;;;;;10.03;3.10;;;8.20;88.00;;;;;;4948774;28;20438;-75
2022/11/24 07:35:27;;;;;;;16.20;3.63;;;8.20;88.40;;;;;;4939648;28;21011;-74
2022/11/24 07:37:57;;;;;;;9.63;3.30;;;8.20;89.00;;;;;;4959247;28;20469;-75
2022/11/24 07:40:24;;;;;;;14.10;3.43;;;8.10;89.90;;;;;;4947510;29;20969;-74
2022/11/24 07:42:49;;;;;;;12.70;3.17;;;8.00;90.40;;;;;;4953075;28;20975;-74
2022/11/24 07:45:15;;;;;;;10.13;3.07;;;8.00;90.60;;;;;;4946561;29;20539;-75
2022/11/24 07:47:41;;;;;;;11.57;3.30;;;7.90;91.10;;;;;;4937983;28;20188;-75
2022/11/24 07:50:08;;;;;;;12.77;3.43;;;7.90;91.40;;;;;;4937375;29;20216;-75
2022/11/24 07:52:34;;;;;;;12.00;3.30;;;7.90;91.70;;;;;;4937371;29;20199;-75
2022/11/24 07:55:00;;;;;;;11.33;2.90;;;7.90;91.70;;;;;;4937242;29;20451;-75
2022/11/24 07:57:27;;;;;;;22.10;4.07;;;8.00;91.90;;;;;;4941014;29;20990;-75
2022/11/24 07:59:54;;;;;;;12.83;3.77;;;7.90;92.00;;;;;;4947792;29;20983;-75
2022/11/24 08:02:19;;;;;;;10.10;2.93;;;7.90;92.10;;;;;;4945401;29;20447;-74
2022/11/24 08:04:45;;;;;;;8.47;3.20;;;7.90;92.30;;;;;;4946282;29;20419;-75
2022/11/24 08:07:10;;;;;;;8.70;3.00;;;7.90;92.50;;;;;;4940390;29;20278;-75
2022/11/24 08:09:36;;;;;;;8.63;3.00;;;7.90;92.60;;;;;;4950252;29;20215;-74
2022/11/24 08:12:02;;;;;;;13.33;3.20;;;7.90;92.70;;;;;;4948384;28;20181;-75
2022/11/24 08:14:28;;;;;;;7.43;3.13;;;7.90;92.80;;;;;;4947774;29;20214;-74
2022/11/24 08:16:53;;;;;;;11.70;2.90;;;7.90;92.80;;;;;;4953280;29;20200;-75
2022/11/24 08:19:20;;;;;;;7.23;2.20;;;7.90;92.70;;;;;;4949860;28;20491;-75
2022/11/24 08:21:46;;;;;;;6.40;2.50;;;7.90;92.10;;;;;;4942932;28;20188;-76
2022/11/24 08:24:14;;;;;;;5.80;1.50;;;7.90;92.00;;;;;;4946936;29;20454;-75
2022/11/24 08:26:40;;;;;;;14.17;2.30;;;8.00;91.60;;;;;;4934718;29;20209;-73
2022/11/24 08:29:06;;;;;;;9.90;2.73;;;8.00;91.30;;;;;;4941840;28;20905;-74
2022/11/24 08:31:34;;;;;;;6.23;2.10;;;8.00;90.50;;;;;;4936976;29;21011;-75
2022/11/24 08:34:01;;;;;;;6.30;1.70;;;8.10;90.40;;;;;;4944936;28;20534;-75
2022/11/24 08:36:27;;;;;;;7.40;2.37;;;8.10;90.10;;;;;;4941224;28;20432;-73
2022/11/24 08:38:56;;;;;;;7.40;2.10;;;8.10;90.10;;;;;;4942360;29;20626;-73
2022/11/24 08:41:23;;;;;;;9.73;2.30;;;8.10;90.20;;;;;;4945372;29;20622;-73
2022/11/24 08:43:48;;;;;;;7.50;2.33;;;8.20;89.90;;;;;;4949556;28;20440;-74
2022/11/24 08:46:16;;;;;;;6.07;2.00;;;8.20;89.30;;;;;;4941612;28;20424;-75
2022/11/24 08:48:42;;;;;;;7.47;2.17;;;8.20;88.70;;;;;;4943310;28;20184;-75
2022/11/24 08:51:14;;;;;;;3.60;1.70;;;8.20;88.10;;;;;;4945461;29;20439;-73
2022/11/24 08:53:41;;;;;;;2.23;1.40;;;8.20;88.30;;;;;;4949431;28;20503;-72
2022/11/24 08:56:08;;;;;;;5.43;1.40;;;8.10;87.60;;;;;;4938528;29;20570;-74
2022/11/24 08:58:34;;;;;;;7.23;1.70;;;8.10;87.60;;;;;;4938962;28;20475;-74
2022/11/24 09:01:08;;;;;;;1.97;1.20;;;8.00;87.70;;;;;;4936821;29;20456;-73
2022/11/24 09:03:34;;;;;;;1.53;1.00;;;8.10;87.70;;;;;;4936690;29;20733;-72
2022/11/24 09:06:00;;;;;;;4.43;1.60;;;8.00;87.30;;;;;;4937878;29;20423;-72
2022/11/24 09:08:26;;;;;;;2.63;1.20;;;8.00;87.10;;;;;;4944914;29;20207;-72
2022/11/24 09:10:51;;;;;;;2.03;1.13;;;8.10;87.10;;;;;;4938372;28;21130;-72
2022/11/24 09:13:17;;;;;;;2.50;1.43;;;8.10;87.30;;;;;;4937684;28;20267;-71
2022/11/24 09:15:42;;;;;;;2.93;1.43;;;8.20;87.40;;;;;;4938308;29;20242;-74
2022/11/24 09:18:08;;;;;;;4.60;1.30;;;8.20;87.00;;;;;;4944049;28;20285;-72
2022/11/24 09:20:34;;;;;;;2.10;1.10;;;8.20;87.00;;;;;;4945927;28;20223;-73
2022/11/24 09:22:59;;;;;;;1.67;1.03;;;8.30;86.50;;;;;;4943850;28;20188;-74
2022/11/24 09:25:25;;;;;;;2.87;1.30;;;8.40;86.50;;;;;;4939615;28;20208;-72
2022/11/24 09:27:51;;;;;;;1.80;1.37;;;8.40;85.90;;;;;;4947910;28;20192;-71
2022/11/24 09:30:16;;;;;;;3.07;1.30;;;8.40;86.00;;;;;;4942790;28;20258;-72
2022/11/24 09:32:42;;;;;;;1.93;1.20;;;8.40;86.00;;;;;;4944072;28;20849;-72
2022/11/24 09:35:08;;;;;;;3.40;1.20;;;8.40;85.70;;;;;;4951629;28;20247;-72
2022/11/24 09:37:34;;;;;;;4.70;1.77;;;8.40;85.90;;;;;;4947225;28;20208;-72
2022/11/24 09:40:00;;;;;;;6.20;1.67;;;8.30;85.70;;;;;;4947511;29;20287;-72
2022/11/24 09:42:55;;;;;;;7.23;1.43;;;8.30;85.70;;;;;;4946378;28;20527;-72
2022/11/24 09:45:35;;;;;;;3.13;1.10;;;8.20;86.20;;;;;;4961284;29;20180;-73
2022/11/24 09:48:08;;;;;;;2.50;1.17;;;8.20;86.60;;;;;;4956438;28;20494;-72
2022/11/24 09:50:36;;;;;;;1.57;0.90;;;8.20;86.80;;;;;;4950575;29;20531;-72
2022/11/24 09:53:10;;;;;;;1.47;1.00;;;8.20;87.00;;;;;;4961732;29;20529;-72
2022/11/24 09:55:43;;;;;;;1.00;0.70;;;8.20;87.00;;;;;;4951139;29;20566;-72
2022/11/24 09:58:29;;;;;;;3.47;0.90;;;8.20;87.10;;;;;;4938861;29;20978;-74
2022/11/24 10:00:56;;;;;;;2.57;1.10;;;8.20;87.00;;;;;;4937441;29;20456;-73
2022/11/24 10:03:35;;;;;;;3.43;1.10;;;8.30;86.90;;;;;;4936444;28;20801;-72
2022/11/24 10:06:13;;;;;;;3.30;1.90;;;8.40;86.90;;;;;;4941157;29;20830;-72
2022/11/24 10:09:01;;;;;;;3.10;1.37;;;8.50;87.00;;;;;;4936617;29;20837;-73
2022/11/24 10:11:38;;;;;;;4.07;1.20;;;8.60;86.60;;;;;;4935126;29;20420;-72
2022/11/24 10:14:16;;;;;;;2.63;1.20;;;8.70;86.50;;;;;;4943371;29;20453;-74
2022/11/24 10:16:59;;;;;;;3.33;1.23;;;8.80;85.90;;;;;;4939270;29;20475;-73
2022/11/24 10:19:46;;;;;;;1.40;1.10;;;8.90;85.00;;;;;;4935032;29;20471;-73
2022/11/24 10:22:37;;;;;;;2.73;1.20;;;9.00;84.10;;;;;;4941909;29;20416;-74
2022/11/24 10:25:22;;;;;;;2.50;1.10;;;9.20;84.00;;;;;;4935378;29;20413;-73
2022/11/24 10:27:55;;;;;;;2.00;1.10;;;9.10;83.40;;;;;;4943806;29;20455;-73
2022/11/24 10:30:22;;;;;;;1.60;1.00;;;9.20;83.60;;;;;;4941343;29;20468;-73
2022/11/24 10:32:56;;;;;;;2.50;1.03;;;9.10;83.60;;;;;;4951369;28;20421;-72
2022/11/24 10:35:45;;;;;;;1.87;1.10;;;9.00;84.10;;;;;;4968684;29;20447;-73
2022/11/24 10:38:34;;;;;;;3.73;1.10;;;9.00;85.30;;;;;;4962652;29;20498;-74
2022/11/24 10:41:48;;;;;;;3.53;0.97;;;9.00;85.30;;;;;;4952190;29;20562;-74
2022/11/24 10:44:14;;;;;;;1.93;1.03;;;9.00;85.90;;;;;;4923073;29;20445;-75
2022/11/24 10:46:40;;;;;;;3.57;1.20;;;9.00;85.00;;;;;;4930645;29;20475;-76
2022/11/24 10:49:10;;;;;;;1.70;1.20;;;9.00;85.30;;;;;;4928318;29;20881;-73
2022/11/24 10:52:06;;;;;;;1.97;1.17;;;9.10;84.90;;;;;;4926848;29;20504;-73
2022/11/24 10:54:34;;;;;;;1.30;1.20;;;9.20;85.00;;;;;;4920559;29;20440;-73
2022/11/24 10:57:00;;;;;;;6.10;1.50;;;9.20;84.70;;;;;;4907915;29;21082;-74
2022/11/24 10:59:36;;;;;;;2.20;1.13;;;9.30;84.60;;;;;;4925370;29;20531;-73
2022/11/24 11:02:29;;;;;;;1.77;1.03;;;9.40;84.10;;;;;;4921165;29;20574;-75
2022/11/24 11:04:55;;;;;;;1.67;1.10;;;9.60;83.70;;;;;;4920217;29;20900;-73
2022/11/24 11:07:24;;;;;;;2.17;1.50;;;9.70;82.80;;;;;;4926492;29;20433;-73
2022/11/24 11:09:50;;;;;;;9.33;1.83;;;9.60;82.70;;;;;;4930783;29;20212;-73
2022/11/24 11:12:22;;;;;;;9.33;1.87;;;9.50;82.80;;;;;;4932790;29;20523;-74
2022/11/24 11:14:48;;;;;;;5.80;2.97;;;9.50;83.40;;;;;;4930973;29;20457;-73
2022/11/24 11:17:34;;;;;;;3.13;1.70;;;9.50;83.00;;;;;;4907965;29;20524;-75
2022/11/24 11:20:30;;;;;;;1.93;1.10;;;9.60;82.70;;;;;;4933752;29;20509;-74
2022/11/24 11:22:59;;;;;;;2.00;1.30;;;9.60;82.10;;;;;;4940806;29;20957;-74
2022/11/24 11:25:34;;;;;;;2.10;0.90;;;9.70;81.90;;;;;;4939996;29;20428;-73
2022/11/24 11:28:21;;;;;;;3.33;1.37;;;9.80;81.20;;;;;;4942182;28;20420;-73
2022/11/24 11:31:01;;;;;;;5.83;1.30;;;10.00;81.50;;;;;;4934272;28;20458;-72
2022/11/24 11:33:29;;;;;;;3.33;1.13;;;10.00;80.80;;;;;;4938939;29;20432;-75
2022/11/24 11:35:56;;;;;;;1.77;1.20;;;10.00;80.60;;;;;;4944038;29;20438;-75
2022/11/24 11:38:25;;;;;;;1.73;1.10;;;10.00;80.80;;;;;;4940893;29;20468;-74
2022/11/24 11:40:51;;;;;;;2.37;1.10;;;10.20;80.20;;;;;;4945286;28;20979;-74
2022/11/24 11:43:39;;;;;;;1.53;0.90;;;10.20;79.70;;;;;;4945608;28;20450;-75
2022/11/24 11:46:12;;;;;;;2.83;1.30;;;10.20;79.70;;;;;;4945865;29;20219;-75
2022/11/24 11:48:42;;;;;;;1.77;1.30;;;10.30;79.70;;;;;;4938819;29;20515;-75
2022/11/24 11:51:29;;;;;;;2.77;1.50;;;10.30;79.90;;;;;;4952630;29;20466;-75
2022/11/24 11:54:07;;;;;;;3.07;1.60;;;10.30;80.00;;;;;;4940383;29;20518;-76
2022/11/24 11:56:43;;;;;;;2.27;1.10;;;10.20;80.00;;;;;;4948955;29;20781;-76
2022/11/24 11:59:12;;;;;;;5.83;1.77;;;10.10;80.50;;;;;;4937804;28;20474;-75
2022/11/24 12:02:02;;;;;;;12.23;2.13;;;10.10;80.50;;;;;;4936297;28;20445;-73
2022/11/24 12:04:44;;;;;;;2.93;1.30;;;10.10;80.20;;;;;;4938033;29;20452;-73
2022/11/24 12:07:36;;;;;;;5.60;1.60;;;10.00;79.60;;;;;;4937228;28;20510;-73
2022/11/24 12:10:31;;;;;;;2.37;1.23;;;9.90;80.00;;;;;;4935424;29;20472;-73
2022/11/24 12:13:35;;;;;;;4.50;1.40;;;10.00;79.70;;;;;;4937723;29;20424;-73
2022/11/24 12:16:19;;;;;;;5.57;1.77;;;10.00;79.50;;;;;;4945106;29;20419;-72
2022/11/24 12:19:02;;;;;;;7.97;1.80;;;10.10;79.30;;;;;;4939688;28;20468;-74
2022/11/24 12:21:35;;;;;;;2.50;1.80;;;10.10;79.20;;;;;;4944571;29;20419;-74
2022/11/24 12:24:16;;;;;;;3.40;1.67;;;10.20;78.10;;;;;;4939678;29;20536;-72
2022/11/24 12:27:08;;;;;;;4.37;1.90;;;10.40;78.30;;;;;;4934053;29;20920;-73
2022/11/24 12:29:49;;;;;;;9.30;2.40;;;10.60;76.80;;;;;;4936108;29;20459;-71
2022/11/24 12:32:46;;;;;;;6.10;1.83;;;10.80;77.30;;;;;;4942627;29;20423;-73
2022/11/24 12:35:33;;;;;;;4.83;1.73;;;10.80;75.50;;;;;;4945223;28;20443;-74
2022/11/24 12:38:23;;;;;;;5.67;2.17;;;10.80;75.20;;;;;;4944499;28;21132;-74
2022/11/24 12:40:52;;;;;;;4.70;2.03;;;10.70;75.50;;;;;;4939710;29;20647;-72
2022/11/24 12:43:29;;;;;;;5.20;1.90;;;10.70;75.70;;;;;;4936781;29;20933;-73
2022/11/24 12:46:27;;;;;;;8.63;2.07;;;10.70;75.50;;;;;;4940078;29;20447;-74
2022/11/24 12:49:12;;;;;;;6.17;2.30;;;10.80;75.70;;;;;;4931375;29;20444;-75
2022/11/24 12:51:41;;;;;;;9.60;1.70;;;10.80;75.20;;;;;;4935641;29;20455;-74
2022/11/24 12:54:14;;;;;;;4.20;1.70;;;10.90;74.30;;;;;;4933557;29;20431;-73
2022/11/24 12:56:46;;;;;;;7.40;1.73;;;10.90;74.60;;;;;;4935813;29;20421;-74
2022/11/24 12:59:29;;;;;;;5.80;1.50;;;10.90;74.30;;;;;;4935011;29;20575;-73
2022/11/24 13:02:04;;;;;;;4.43;1.70;;;10.90;74.90;;;;;;4936109;29;20450;-72
2022/11/24 13:04:50;;;;;;;5.73;1.77;;;11.00;73.30;;;;;;4939615;28;20433;-73
2022/11/24 13:07:25;;;;;;;4.83;2.03;;;11.10;72.00;;;;;;4937107;29;20421;-73